Time;durP1;ratioP1;P1;durP2;ratioP2;P2;SDS_P1;SDS_P2;PMS_P1;PMS_P2;Temp;Humidity;BMP_temperature;BMP_pressure;BME280_temperature;BME280_humidity;BME280_pressure;Samples;Min_cycle;Max_cycle;Signal;HPM_P1;HPM_P2
2020/12/31 00:01:02;;;;;;;;;;;;;;;28.58;28.03;100512.88;5117427;28;1970;-40
2020/12/31 00:03:27;;;;;;;;;;;;;;;28.27;28.46;100511.41;5117923;27;823;-40
2020/12/31 00:05:53;;;;;;;;;;;;;;;28.25;29.07;100497.22;5128282;27;857;-41
2020/12/31 00:08:18;;;;;;;;;;;;;;;28.99;27.65;100502.28;5134929;27;807;-41
2020/12/31 00:10:43;;;;;;;;;;;;;;;28.49;28.13;100503.25;5137915;27;844;-40
2020/12/31 00:13:09;;;;;;;;;;;;;;;28.16;28.60;100501.13;5138201;27;819;-40
2020/12/31 00:15:34;;;;;;;;;;;;;;;27.98;29.19;100503.28;5137621;27;743;-42
2020/12/31 00:17:59;;;;;;;;;;;;;;;28.56;28.76;100506.00;5138100;27;807;-40
2020/12/31 00:20:24;;;;;;;;;;;;;;;29.11;27.33;100509.84;5133400;27;1319;-39
2020/12/31 00:22:50;;;;;;;;;;;;;;;29.04;27.15;100507.09;5117316;28;1954;-33
2020/12/31 00:25:15;;;;;;;;;;;;;;;28.30;28.66;100502.88;5117389;28;795;-40
2020/12/31 00:27:40;;;;;;;;;;;;;;;28.92;27.94;100502.25;5117309;28;739;-38
2020/12/31 00:30:07;;;;;;;;;;;;;;;29.22;27.09;100501.13;5116696;28;506;-42
2020/12/31 00:32:32;;;;;;;;;;;;;;;29.35;26.78;100494.91;5117388;28;1019;-41
2020/12/31 00:34:57;;;;;;;;;;;;;;;28.98;27.32;100495.19;5137057;27;1174;-38
2020/12/31 00:37:22;;;;;;;;;;;;;;;28.61;28.15;100490.00;5117000;28;788;-38
2020/12/31 00:39:48;;;;;;;;;;;;;;;28.06;28.85;100499.56;5117398;28;819;-38
2020/12/31 00:42:13;;;;;;;;;;;;;;;28.87;27.37;100501.16;5117033;28;1964;-38
2020/12/31 00:44:38;;;;;;;;;;;;;;;28.63;27.52;100497.94;5116554;28;790;-38
2020/12/31 00:47:04;;;;;;;;;;;;;;;28.62;27.37;100499.78;5117244;28;779;-42
2020/12/31 00:49:29;;;;;;;;;;;;;;;28.73;27.89;100498.38;5117037;28;847;-38
2020/12/31 00:51:54;;;;;;;;;;;;;;;29.52;26.44;100489.09;5117231;27;949;-40
2020/12/31 00:54:19;;;;;;;;;;;;;;;29.05;27.08;100492.50;5117200;28;831;-38
2020/12/31 00:56:45;;;;;;;;;;;;;;;29.17;27.01;100492.75;5116903;28;872;-39
2020/12/31 00:59:10;;;;;;;;;;;;;;;28.91;27.29;100500.53;5117121;28;799;-39
2020/12/31 01:01:35;;;;;;;;;;;;;;;29.18;27.21;100494.44;5116706;28;1972;-37
2020/12/31 01:04:00;;;;;;;;;;;;;;;29.36;26.73;100496.59;5117381;28;752;-39
2020/12/31 01:06:26;;;;;;;;;;;;;;;29.20;27.23;100501.34;5117228;27;1001;-35
2020/12/31 01:08:51;;;;;;;;;;;;;;;29.05;27.20;100506.06;5115079;28;1424;-40
2020/12/31 01:11:17;;;;;;;;;;;;;;;28.38;28.72;100504.63;5137460;28;1242;-37
2020/12/31 01:13:42;;;;;;;;;;;;;;;28.94;28.03;100502.88;5137628;27;775;-37
2020/12/31 01:16:08;;;;;;;;;;;;;;;29.43;27.02;100496.56;5137291;27;728;-40
2020/12/31 01:18:35;;;;;;;;;;;;;;;29.14;27.13;100504.84;5137447;27;1134;-40
2020/12/31 01:21:00;;;;;;;;;;;;;;;28.77;28.11;100498.81;5127486;27;1905;-38
2020/12/31 01:23:26;;;;;;;;;;;;;;;29.64;26.99;100497.50;5116742;28;791;-40
2020/12/31 01:25:51;;;;;;;;;;;;;;;29.50;27.18;100492.00;5116931;28;822;-40
2020/12/31 01:28:16;;;;;;;;;;;;;;;29.27;27.45;100486.97;5117269;28;794;-40
2020/12/31 01:30:42;;;;;;;;;;;;;;;28.75;28.36;100481.94;5116406;28;861;-40
2020/12/31 01:33:07;;;;;;;;;;;;;;;28.30;29.28;100473.13;5116879;28;751;-39
2020/12/31 01:35:32;;;;;;;;;;;;;;;28.98;28.09;100470.81;5116785;27;1004;-40
2020/12/31 01:37:57;;;;;;;;;;;;;;;29.28;27.41;100470.50;5116370;28;826;-36
2020/12/31 01:40:23;;;;;;;;;;;;;;;29.07;27.74;100466.06;5116809;28;771;-40
2020/12/31 01:42:48;;;;;;;;;;;;;;;28.39;29.24;100464.91;5116820;28;1905;-38
2020/12/31 01:45:13;;;;;;;;;;;;;;;29.13;28.35;100465.25;5116173;28;739;-39
2020/12/31 01:47:39;;;;;;;;;;;;;;;29.26;27.77;100464.44;5116764;28;743;-38
2020/12/31 01:50:04;;;;;;;;;;;;;;;29.18;27.82;100465.47;5116491;27;949;-39
2020/12/31 01:52:29;;;;;;;;;;;;;;;28.97;28.33;100463.75;5116397;28;743;-41
2020/12/31 01:54:55;;;;;;;;;;;;;;;29.15;28.26;100463.19;5115202;28;803;-41
2020/12/31 01:57:20;;;;;;;;;;;;;;;29.42;27.83;100460.53;5117310;28;751;-41
2020/12/31 01:59:45;;;;;;;;;;;;;;;29.26;27.91;100464.44;5119779;28;882;-35
2020/12/31 02:02:11;;;;;;;;;;;;;;;28.90;28.97;100454.72;5120191;28;1968;-36
2020/12/31 02:04:37;;;;;;;;;;;;;;;28.83;28.95;100457.41;5120103;28;767;-36
2020/12/31 02:07:02;;;;;;;;;;;;;;;29.47;27.94;100449.06;5119201;27;1055;-39
2020/12/31 02:09:28;;;;;;;;;;;;;;;29.26;28.23;100445.47;5123748;27;1143;-39
2020/12/31 02:11:54;;;;;;;;;;;;;;;29.09;28.51;100448.56;5139375;27;743;-41
2020/12/31 02:14:19;;;;;;;;;;;;;;;28.74;29.37;100445.94;5140205;27;799;-41
2020/12/31 02:16:44;;;;;;;;;;;;;;;29.31;28.22;100451.13;5140358;27;846;-42
2020/12/31 02:19:13;;;;;;;;;;;;;;;29.25;28.21;100440.28;5140193;27;1165;-33
2020/12/31 02:21:47;;;;;;;;;;;;;;;29.06;28.89;100440.03;5125038;27;1921;-34
2020/12/31 02:24:13;;;;;;;;;;;;;;;28.68;29.68;100433.19;5119831;28;748;-41
2020/12/31 02:26:38;;;;;;;;;;;;;;;29.33;28.49;100432.78;5119875;27;814;-36
2020/12/31 02:29:04;;;;;;;;;;;;;;;29.32;28.53;100430.28;5119381;28;755;-41
2020/12/31 02:31:29;;;;;;;;;;;;;;;29.27;28.37;100439.03;5119728;28;804;-37
2020/12/31 02:33:55;;;;;;;;;;;;;;;29.55;28.63;100438.03;5119752;28;830;-37
2020/12/31 02:36:22;;;;;;;;;;;;;;;29.61;28.25;100428.28;5118864;27;1044;-39
2020/12/31 02:38:47;;;;;;;;;;;;;;;29.26;28.78;100425.72;5119525;28;756;-37
2020/12/31 02:41:12;;;;;;;;;;;;;;;29.30;28.59;100426.94;5119324;28;1967;-33
2020/12/31 02:43:38;;;;;;;;;;;;;;;29.21;28.76;100431.75;5119179;28;862;-37
2020/12/31 02:46:03;;;;;;;;;;;;;;;29.16;28.89;100432.34;5119191;28;748;-39
2020/12/31 02:48:29;;;;;;;;;;;;;;;29.03;29.10;100435.03;5119223;28;752;-35
2020/12/31 02:50:54;;;;;;;;;;;;;;;28.99;29.19;100433.75;5118903;27;953;-42
2020/12/31 02:53:19;;;;;;;;;;;;;;;28.91;29.28;100430.16;5119164;28;764;-37
2020/12/31 02:55:44;;;;;;;;;;;;;;;28.79;29.93;100431.78;5119022;28;823;-42
2020/12/31 02:58:10;;;;;;;;;;;;;;;28.75;30.14;100420.53;5118897;28;764;-36
2020/12/31 03:00:35;;;;;;;;;;;;;;;28.95;29.86;100420.59;5119155;28;815;-38
2020/12/31 03:03:00;;;;;;;;;;;;;;;29.26;29.22;100420.28;5118735;28;1894;-41
2020/12/31 03:05:26;;;;;;;;;;;;;;;29.05;29.24;100411.28;5118369;27;996;-41
2020/12/31 03:07:51;;;;;;;;;;;;;;;28.86;30.14;100408.28;5118284;28;803;-40
2020/12/31 03:10:16;;;;;;;;;;;;;;;29.58;28.79;100413.22;5130905;27;1150;-38
2020/12/31 03:12:41;;;;;;;;;;;;;;;29.28;29.41;100408.19;5139162;27;767;-36
2020/12/31 03:15:10;;;;;;;;;;;;;;;29.22;29.26;100409.03;5139075;27;798;-37
2020/12/31 03:17:35;;;;;;;;;;;;;;;28.44;31.16;100411.88;5139472;27;747;-40
2020/12/31 03:20:00;;;;;;;;;;;;;;;28.86;30.66;100413.72;5137544;27;1304;-39
2020/12/31 03:22:26;;;;;;;;;;;;;;;29.42;29.14;100421.75;5118396;28;1950;-37
2020/12/31 03:24:51;;;;;;;;;;;;;;;29.32;29.28;100425.72;5118645;28;838;-42
2020/12/31 03:27:16;;;;;;;;;;;;;;;29.24;29.56;100419.66;5118236;28;791;-41
2020/12/31 03:29:41;;;;;;;;;;;;;;;29.52;29.13;100429.47;5118496;28;842;-36
2020/12/31 03:32:07;;;;;;;;;;;;;;;29.30;29.22;100425.09;5118442;28;791;-38
2020/12/31 03:34:32;;;;;;;;;;;;;;;29.34;29.43;100439.06;5118268;28;811;-41
2020/12/31 03:36:57;;;;;;;;;;;;;;;28.55;31.08;100434.81;5117779;27;934;-37
2020/12/31 03:39:23;;;;;;;;;;;;;;;29.44;29.63;100431.38;5118368;28;763;-42
2020/12/31 03:41:48;;;;;;;;;;;;;;;29.39;29.47;100433.00;5118211;28;1962;-37
2020/12/31 03:44:13;;;;;;;;;;;;;;;29.23;30.22;100429.66;5117802;28;823;-37
2020/12/31 03:46:38;;;;;;;;;;;;;;;29.59;29.68;100435.78;5118095;28;743;-38
2020/12/31 03:49:04;;;;;;;;;;;;;;;29.62;29.38;100429.09;5117812;28;502;-33
2020/12/31 03:51:29;;;;;;;;;;;;;;;29.46;29.66;100429.25;5129519;27;951;-39
2020/12/31 03:53:54;;;;;;;;;;;;;;;29.01;28.88;100431.69;5138970;27;987;-40
2020/12/31 03:56:19;;;;;;;;;;;;;;;28.75;28.64;100435.91;5138369;27;755;-39
2020/12/31 03:58:45;;;;;;;;;;;;;;;29.41;28.09;100434.47;5138138;27;807;-39
2020/12/31 04:01:10;;;;;;;;;;;;;;;29.33;27.09;100430.09;5138512;27;1962;-38
2020/12/31 04:03:35;;;;;;;;;;;;;;;29.09;27.56;100440.44;5138285;27;847;-39
2020/12/31 04:06:00;;;;;;;;;;;;;;;29.28;28.40;100439.88;5137853;27;1000;-41
2020/12/31 04:08:26;;;;;;;;;;;;;;;29.28;27.32;100429.06;5138103;27;850;-39
2020/12/31 04:10:51;;;;;;;;;;;;;;;29.17;27.58;100435.88;5138004;27;1145;-34
2020/12/31 04:13:16;;;;;;;;;;;;;;;28.68;29.10;100435.88;5138090;27;740;-38
2020/12/31 04:15:41;;;;;;;;;;;;;;;29.65;27.61;100434.94;5123970;27;910;-42
2020/12/31 04:18:07;;;;;;;;;;;;;;;29.58;27.48;100431.34;5117423;28;846;-38
2020/12/31 04:20:34;;;;;;;;;;;;;;;29.30;27.75;100432.38;5116208;27;1089;-42
2020/12/31 04:22:59;;;;;;;;;;;;;;;29.34;28.24;100430.94;5117526;28;1972;-38
2020/12/31 04:25:24;;;;;;;;;;;;;;;29.41;28.07;100429.03;5117245;28;811;-40
2020/12/31 04:27:50;;;;;;;;;;;;;;;29.25;27.22;100426.72;5117232;28;826;-40
2020/12/31 04:30:15;;;;;;;;;;;;;;;28.68;27.58;100433.19;5117421;28;866;-41
2020/12/31 04:32:40;;;;;;;;;;;;;;;28.63;28.31;100438.41;5117658;28;751;-39
2020/12/31 04:35:05;;;;;;;;;;;;;;;29.03;27.75;100430.44;5116867;27;937;-38
2020/12/31 04:37:31;;;;;;;;;;;;;;;28.46;28.78;100430.59;5117251;28;831;-39
2020/12/31 04:39:56;;;;;;;;;;;;;;;28.82;27.71;100434.94;5117323;28;800;-40
2020/12/31 04:42:21;;;;;;;;;;;;;;;28.43;28.63;100430.97;5117002;28;1906;-39
2020/12/31 04:44:47;;;;;;;;;;;;;;;28.15;28.96;100435.38;5117121;28;901;-39
2020/12/31 04:47:17;;;;;;;;;;;;;;;29.17;27.53;100442.16;5116269;28;811;-40
2020/12/31 04:49:43;;;;;;;;;;;;;;;28.95;26.30;100436.00;5116985;28;744;-38
2020/12/31 04:52:09;;;;;;;;;;;;;;;26.05;28.00;100438.38;5116436;27;985;-42
2020/12/31 04:54:35;;;;;;;;;;;;;;;26.20;28.52;100435.72;5116245;28;751;-39
2020/12/31 04:57:00;;;;;;;;;;;;;;;26.16;28.95;100437.94;5115783;28;787;-41
2020/12/31 04:59:26;;;;;;;;;;;;;;;25.65;29.37;100436.72;5115425;28;1269;-38
2020/12/31 05:01:51;;;;;;;;;;;;;;;25.10;30.05;100435.88;5117325;28;1906;-36
2020/12/31 05:04:16;;;;;;;;;;;;;;;23.17;33.04;100434.41;5116960;28;846;-35
2020/12/31 05:06:41;;;;;;;;;;;;;;;23.59;32.28;100429.97;5116657;27;1139;-39
2020/12/31 05:09:17;;;;;;;;;;;;;;;23.92;32.39;100429.97;5117643;28;1325;-41
2020/12/31 05:11:42;;;;;;;;;;;;;;;25.56;30.66;100437.75;5137695;27;751;-45
2020/12/31 05:14:08;;;;;;;;;;;;;;;25.89;30.48;100447.47;5137138;27;846;-43
2020/12/31 05:16:33;;;;;;;;;;;;;;;25.99;30.25;100441.81;5136665;28;786;-42
2020/12/31 05:18:58;;;;;;;;;;;;;;;26.02;30.15;100442.31;5137518;27;1058;-44
2020/12/31 05:21:23;;;;;;;;;;;;;;;26.07;29.90;100444.44;5124331;27;1913;-43
2020/12/31 05:23:49;;;;;;;;;;;;;;;25.99;30.18;100439.94;5117112;28;878;-43
2020/12/31 05:26:29;;;;;;;;;;;;;;;25.96;30.34;100447.59;5116465;28;786;-42
2020/12/31 05:28:55;;;;;;;;;;;;;;;26.05;30.21;100443.78;5116861;28;739;-44
2020/12/31 05:31:21;;;;;;;;;;;;;;;26.14;30.33;100447.25;5133114;27;823;-43
2020/12/31 05:33:46;;;;;;;;;;;;;;;25.96;30.62;100440.31;5139926;27;862;-46
2020/12/31 05:36:18;;;;;;;;;;;;;;;25.92;30.55;100447.09;5134356;27;1007;-44
2020/12/31 05:38:46;;;;;;;;;;;;;;;25.88;30.78;100448.47;5141291;27;755;-43
2020/12/31 05:41:12;;;;;;;;;;;;;;;26.01;30.58;100451.38;5139742;27;1970;-44
2020/12/31 05:43:37;;;;;;;;;;;;;;;26.12;30.57;100455.50;5141016;27;779;-44
2020/12/31 05:46:06;;;;;;;;;;;;;;;25.96;30.76;100463.75;5139495;27;1301;-44
2020/12/31 05:48:32;;;;;;;;;;;;;;;25.94;30.79;100460.41;5140509;27;739;-46
2020/12/31 05:50:57;;;;;;;;;;;;;;;25.87;30.93;100462.97;5131979;27;1063;-45
2020/12/31 05:53:23;;;;;;;;;;;;;;;25.85;31.09;100470.41;5120429;28;907;-41
2020/12/31 05:55:49;;;;;;;;;;;;;;;25.79;31.26;100464.72;5119599;28;754;-46
2020/12/31 05:58:16;;;;;;;;;;;;;;;25.69;31.48;100461.44;5120659;28;800;-43
2020/12/31 06:00:42;;;;;;;;;;;;;;;25.88;31.21;100465.47;5132305;27;882;-44
2020/12/31 06:03:07;;;;;;;;;;;;;;;25.74;31.40;100472.50;5138793;27;1952;-43
2020/12/31 06:05:32;;;;;;;;;;;;;;;25.74;31.30;100461.72;5138332;27;1315;-47
2020/12/31 06:07:58;;;;;;;;;;;;;;;25.93;31.43;100459.53;5139183;27;954;-39
2020/12/31 06:10:26;;;;;;;;;;;;;;;25.97;31.53;100473.50;5140033;27;1197;-37
2020/12/31 06:12:59;;;;;;;;;;;;;;;26.02;31.58;100471.94;5140646;27;747;-38
2020/12/31 06:15:24;;;;;;;;;;;;;;;25.77;31.65;100477.53;5140472;27;821;-38
2020/12/31 06:17:49;;;;;;;;;;;;;;;25.89;31.77;100466.34;5139949;27;786;-38
2020/12/31 06:20:18;;;;;;;;;;;;;;;26.00;31.85;100465.91;5137247;27;1092;-38
2020/12/31 06:22:59;;;;;;;;;;;;;;;25.93;31.75;100459.53;5120066;28;1917;-38
2020/12/31 06:25:43;;;;;;;;;;;;;;;25.86;32.05;100459.44;5119151;28;744;-38
2020/12/31 06:28:18;;;;;;;;;;;;;;;25.87;31.93;100468.38;5119766;28;727;-38
2020/12/31 06:30:44;;;;;;;;;;;;;;;25.89;31.89;100469.03;5119803;28;807;-37
2020/12/31 06:33:11;;;;;;;;;;;;;;;25.92;31.86;100471.34;5119362;27;774;-36
2020/12/31 06:35:37;;;;;;;;;;;;;;;25.97;31.95;100473.50;5118930;27;957;-38
2020/12/31 06:38:02;;;;;;;;;;;;;;;25.99;31.75;100469.59;5119366;28;731;-36
2020/12/31 06:40:28;;;;;;;;;;;;;;;25.95;31.84;100468.28;5119188;28;779;-37
2020/12/31 06:43:07;;;;;;;;;;;;;;;25.95;32.01;100468.28;5118551;28;1917;-42
2020/12/31 06:45:36;;;;;;;;;;;;;;;25.80;32.29;100468.25;5118942;28;834;-38
2020/12/31 06:48:02;;;;;;;;;;;;;;;25.37;32.74;100466.84;5119332;28;743;-38
2020/12/31 06:50:46;;;;;;;;;;;;;;;25.42;32.60;100459.06;5118458;27;965;-38
2020/12/31 06:53:29;;;;;;;;;;;;;;;25.60;32.47;100460.63;5119137;28;795;-37
2020/12/31 06:55:55;;;;;;;;;;;;;;;25.66;32.20;100467.16;5118731;28;756;-41
2020/12/31 06:58:21;;;;;;;;;;;;;;;25.64;32.22;100472.72;5119102;28;826;-37
2020/12/31 07:00:46;;;;;;;;;;;;;;;25.86;32.17;100458.63;5118705;28;784;-38
2020/12/31 07:03:11;;;;;;;;;;;;;;;25.92;31.96;100460.56;5118878;28;1913;-38
2020/12/31 07:05:37;;;;;;;;;;;;;;;25.87;32.08;100461.13;5122927;27;1004;-38
2020/12/31 07:08:02;;;;;;;;;;;;;;;25.86;32.08;100466.69;5138390;27;767;-38
2020/12/31 07:10:42;;;;;;;;;;;;;;;25.92;32.16;100463.28;5139134;27;1256;-38
2020/12/31 07:13:10;;;;;;;;;;;;;;;25.84;32.15;100466.03;5139520;27;802;-39
2020/12/31 07:15:39;;;;;;;;;;;;;;;25.82;32.18;100462.69;5137699;27;1289;-37
2020/12/31 07:18:04;;;;;;;;;;;;;;;25.81;32.19;100459.13;5138905;27;763;-37
2020/12/31 07:20:29;;;;;;;;;;;;;;;25.82;32.34;100457.28;5133501;27;1117;-37
2020/12/31 07:22:55;;;;;;;;;;;;;;;25.80;32.31;100458.31;5118602;27;1913;-37
2020/12/31 07:25:20;;;;;;;;;;;;;;;25.78;32.32;100448.72;5118206;28;830;-37
2020/12/31 07:27:46;;;;;;;;;;;;;;;25.90;32.21;100449.13;5118274;28;791;-36
2020/12/31 07:30:12;;;;;;;;;;;;;;;25.90;32.40;100443.75;5118598;28;855;-36
2020/12/31 07:32:50;;;;;;;;;;;;;;;25.92;32.34;100447.91;5117973;28;750;-38
2020/12/31 07:35:18;;;;;;;;;;;;;;;25.98;32.48;100438.28;5117841;27;949;-37
2020/12/31 07:37:43;;;;;;;;;;;;;;;25.86;32.25;100443.25;5118224;28;748;-38
2020/12/31 07:40:09;;;;;;;;;;;;;;;25.87;32.26;100436.88;5118124;28;882;-36
2020/12/31 07:42:34;;;;;;;;;;;;;;;25.91;32.28;100443.56;5118129;28;1906;-37
2020/12/31 07:44:59;;;;;;;;;;;;;;;25.95;31.89;100438.66;5118202;28;857;-38
2020/12/31 07:47:24;;;;;;;;;;;;;;;25.96;32.12;100432.22;5117671;28;795;-37
2020/12/31 07:49:51;;;;;;;;;;;;;;;25.84;32.33;100441.78;5118315;28;854;-37
2020/12/31 07:52:17;;;;;;;;;;;;;;;25.83;32.17;100432.84;5117369;27;946;-37
2020/12/31 07:54:42;;;;;;;;;;;;;;;25.84;32.38;100437.22;5117324;28;763;-36
2020/12/31 07:57:10;;;;;;;;;;;;;;;25.90;32.15;100441.06;5118316;28;743;-37
2020/12/31 07:59:39;;;;;;;;;;;;;;;25.91;32.27;100434.63;5117906;28;779;-33
2020/12/31 08:02:05;;;;;;;;;;;;;;;25.93;32.20;100440.69;5117278;28;1905;-36
2020/12/31 08:04:30;;;;;;;;;;;;;;;25.95;32.35;100435.94;5117820;28;743;-35
2020/12/31 08:06:55;;;;;;;;;;;;;;;26.00;32.17;100432.72;5117220;27;954;-37
2020/12/31 08:09:21;;;;;;;;;;;;;;;25.88;32.25;100430.47;5121416;27;1111;-36
2020/12/31 08:11:48;;;;;;;;;;;;;;;25.93;32.33;100429.91;5138262;27;893;-37
2020/12/31 08:14:13;;;;;;;;;;;;;;;25.99;32.17;100423.78;5136139;27;866;-37
2020/12/31 08:16:39;;;;;;;;;;;;;;;26.06;32.03;100423.88;5136966;27;763;-37
2020/12/31 08:19:04;;;;;;;;;;;;;;;26.02;32.24;100428.81;5137963;27;1050;-37
2020/12/31 08:21:29;;;;;;;;;;;;;;;26.02;32.19;100427.97;5124167;27;1909;-37
2020/12/31 08:24:02;;;;;;;;;;;;;;;25.99;32.27;100429.16;5115943;28;1050;-38
2020/12/31 08:26:28;;;;;;;;;;;;;;;26.04;32.10;100421.38;5117213;28;823;-35
2020/12/31 08:28:53;;;;;;;;;;;;;;;26.05;32.16;100422.22;5115606;28;569;-37
2020/12/31 08:31:18;;;;;;;;;;;;;;;26.04;32.20;100410.59;5115680;28;763;-37
2020/12/31 08:33:44;;;;;;;;;;;;;;;26.05;32.14;100408.75;5115725;28;1525;-36
2020/12/31 08:36:09;;;;;;;;;;;;;;;26.08;31.93;100402.13;5116421;27;1040;-35
2020/12/31 08:38:37;;;;;;;;;;;;;;;26.10;31.97;100392.00;5116731;28;901;-36
2020/12/31 08:41:04;;;;;;;;;;;;;;;26.09;32.11;100390.34;5117033;28;1987;-38
2020/12/31 08:43:30;;;;;;;;;;;;;;;26.12;32.04;100384.56;5117224;28;766;-36
2020/12/31 08:45:57;;;;;;;;;;;;;;;26.16;31.95;100378.63;5116642;28;822;-36
2020/12/31 08:48:22;;;;;;;;;;;;;;;26.14;31.96;100377.16;5116954;28;810;-37
2020/12/31 08:50:59;;;;;;;;;;;;;;;26.20;31.95;100362.91;5116339;27;961;-41
2020/12/31 08:53:25;;;;;;;;;;;;;;;26.26;31.86;100362.16;5116713;28;823;-41
2020/12/31 08:55:50;;;;;;;;;;;;;;;26.26;31.86;100359.47;5116840;28;822;-43
2020/12/31 08:58:16;;;;;;;;;;;;;;;26.32;31.72;100352.50;5116702;28;779;-43
2020/12/31 09:00:42;;;;;;;;;;;;;;;26.34;31.67;100346.97;5116616;28;801;-44
2020/12/31 09:03:07;;;;;;;;;;;;;;;26.33;31.62;100343.41;5116602;28;1897;-40
2020/12/31 09:05:32;;;;;;;;;;;;;;;26.30;31.56;100341.06;5117154;27;949;-41
2020/12/31 09:08:16;;;;;;;;;;;;;;;26.30;31.72;100341.06;5120726;27;754;-39
2020/12/31 09:10:41;;;;;;;;;;;;;;;26.36;31.58;100336.81;5136189;27;1122;-41
2020/12/31 09:13:17;;;;;;;;;;;;;;;26.32;31.60;100343.56;5141475;27;853;-43
2020/12/31 09:15:42;;;;;;;;;;;;;;;26.24;31.81;100339.13;5141029;27;798;-43
2020/12/31 09:18:15;;;;;;;;;;;;;;;26.23;31.88;100343.66;5141461;27;806;-40
2020/12/31 09:20:40;;;;;;;;;;;;;;;26.27;31.86;100338.75;5134372;27;1084;-40
2020/12/31 09:23:06;;;;;;;;;;;;;;;26.29;31.74;100344.78;5120368;28;1976;-43
2020/12/31 09:25:31;;;;;;;;;;;;;;;26.28;31.55;100341.25;5120244;28;755;-41
2020/12/31 09:27:57;;;;;;;;;;;;;;;26.29;31.77;100334.81;5120668;28;802;-42
2020/12/31 09:30:22;;;;;;;;;;;;;;;26.33;31.50;100329.94;5120318;28;834;-40
2020/12/31 09:32:47;;;;;;;;;;;;;;;26.32;31.60;100324.69;5120272;28;775;-41
2020/12/31 09:35:13;;;;;;;;;;;;;;;26.27;31.57;100322.56;5132749;27;878;-39
2020/12/31 09:37:47;;;;;;;;;;;;;;;26.13;32.10;100311.59;5120058;28;822;-43
2020/12/31 09:40:13;;;;;;;;;;;;;;;26.21;31.93;100299.88;5119868;28;842;-43
2020/12/31 09:42:38;;;;;;;;;;;;;;;26.22;31.74;100304.25;5120293;28;1909;-43
2020/12/31 09:45:03;;;;;;;;;;;;;;;26.32;31.67;100300.44;5119913;28;748;-44
2020/12/31 09:47:29;;;;;;;;;;;;;;;26.31;31.68;100293.38;5120031;28;802;-42
2020/12/31 09:49:54;;;;;;;;;;;;;;;26.31;31.67;100287.97;5120183;28;811;-44
2020/12/31 09:52:19;;;;;;;;;;;;;;;26.24;31.65;100280.63;5119692;27;953;-45
2020/12/31 09:54:44;;;;;;;;;;;;;;;26.26;31.61;100270.50;5119746;28;810;-44
2020/12/31 09:57:10;;;;;;;;;;;;;;;26.29;31.73;100280.91;5120074;28;763;-44
2020/12/31 09:59:35;;;;;;;;;;;;;;;26.36;31.42;100264.03;5120670;27;842;-43
2020/12/31 10:02:00;;;;;;;;;;;;;;;26.30;31.66;100270.97;5140285;27;1909;-43
2020/12/31 10:04:26;;;;;;;;;;;;;;;26.26;31.64;100259.72;5139826;27;878;-45
2020/12/31 10:06:51;;;;;;;;;;;;;;;26.17;32.02;100260.84;5123333;27;949;-45
2020/12/31 10:09:16;;;;;;;;;;;;;;;26.28;31.86;100259.53;5122773;27;1145;-45
2020/12/31 10:11:45;;;;;;;;;;;;;;;26.35;31.53;100244.28;5140624;27;770;-44
2020/12/31 10:14:10;;;;;;;;;;;;;;;26.24;31.92;100253.66;5140152;27;739;-43
2020/12/31 10:16:36;;;;;;;;;;;;;;;26.18;32.02;100240.94;5139690;27;874;-44
2020/12/31 10:19:01;;;;;;;;;;;;;;;26.21;31.93;100245.97;5139281;27;1286;-45
2020/12/31 10:21:26;;;;;;;;;;;;;;;26.28;31.83;100246.03;5126561;27;1968;-44
2020/12/31 10:23:51;;;;;;;;;;;;;;;26.13;32.20;100246.06;5119322;28;802;-44
2020/12/31 10:26:19;;;;;;;;;;;;;;;26.19;31.77;100247.19;5119772;28;764;-42
2020/12/31 10:28:44;;;;;;;;;;;;;;;26.36;31.75;100239.75;5119193;28;795;-44
2020/12/31 10:31:09;;;;;;;;;;;;;;;26.38;31.56;100229.59;5119097;28;770;-43
2020/12/31 10:33:34;;;;;;;;;;;;;;;26.50;31.43;100211.03;5119238;28;835;-43
2020/12/31 10:36:00;;;;;;;;;;;;;;;26.51;31.47;100216.25;5118605;27;997;-43
2020/12/31 10:38:25;;;;;;;;;;;;;;;26.57;31.35;100208.41;5118960;28;811;-43
2020/12/31 10:40:50;;;;;;;;;;;;;;;26.62;31.10;100214.91;5119184;28;819;-43
2020/12/31 10:43:15;;;;;;;;;;;;;;;26.56;31.46;100204.06;5119157;28;1897;-43
2020/12/31 10:45:41;;;;;;;;;;;;;;;26.52;31.25;100195.50;5118723;28;783;-42
2020/12/31 10:48:07;;;;;;;;;;;;;;;26.57;31.26;100203.88;5118949;28;806;-43
2020/12/31 10:50:33;;;;;;;;;;;;;;;26.60;31.23;100194.53;5118539;27;1012;-43
2020/12/31 10:52:58;;;;;;;;;;;;;;;26.51;31.26;100201.91;5118682;28;816;-43
2020/12/31 10:55:23;;;;;;;;;;;;;;;26.54;31.46;100204.25;5118709;28;810;-43
2020/12/31 10:57:49;;;;;;;;;;;;;;;26.51;31.48;100208.16;5119136;28;810;-43
2020/12/31 11:00:14;;;;;;;;;;;;;;;26.57;31.22;100220.06;5118863;28;759;-43
2020/12/31 11:02:39;;;;;;;;;;;;;;;26.50;31.60;100190.31;5118961;28;1963;-44
2020/12/31 11:05:06;;;;;;;;;;;;;;;26.43;31.49;100183.16;5118237;27;953;-43
2020/12/31 11:07:32;;;;;;;;;;;;;;;26.46;31.59;100198.97;5118436;28;847;-43
2020/12/31 11:09:57;;;;;;;;;;;;;;;26.54;31.30;100193.47;5127654;27;1189;-43
2020/12/31 11:12:22;;;;;;;;;;;;;;;26.51;31.47;100196.50;5139300;27;743;-43
2020/12/31 11:14:48;;;;;;;;;;;;;;;26.55;31.27;100192.44;5138855;27;771;-43
2020/12/31 11:17:13;;;;;;;;;;;;;;;26.38;31.34;100179.19;5138919;27;854;-44
2020/12/31 11:19:38;;;;;;;;;;;;;;;26.43;31.25;100175.91;5138998;27;1095;-43
2020/12/31 11:22:05;;;;;;;;;;;;;;;26.32;31.19;100174.53;5137627;27;1968;-44
2020/12/31 11:24:30;;;;;;;;;;;;;;;26.31;30.84;100164.75;5138668;27;850;-43
2020/12/31 11:26:55;;;;;;;;;;;;;;;26.29;31.15;100173.06;5139316;27;862;-41
2020/12/31 11:29:21;;;;;;;;;;;;;;;26.41;31.41;100173.41;5138303;27;763;-42
2020/12/31 11:31:46;;;;;;;;;;;;;;;26.32;31.01;100171.00;5138548;27;811;-43
2020/12/31 11:34:11;;;;;;;;;;;;;;;26.35;31.05;100173.34;5138458;27;844;-43
2020/12/31 11:36:37;;;;;;;;;;;;;;;26.33;31.36;100167.31;5137404;27;941;-42
2020/12/31 11:39:02;;;;;;;;;;;;;;;26.35;30.95;100168.78;5138468;27;874;-43
2020/12/31 11:41:28;;;;;;;;;;;;;;;26.28;31.48;100170.53;5138703;27;1956;-44
2020/12/31 11:43:53;;;;;;;;;;;;;;;26.35;31.10;100165.25;5137806;27;836;-44
2020/12/31 11:46:18;;;;;;;;;;;;;;;26.36;30.91;100158.84;5138489;27;861;-42
2020/12/31 11:48:43;;;;;;;;;;;;;;;26.22;31.15;100156.00;5138255;27;854;-41
2020/12/31 11:51:09;;;;;;;;;;;;;;;26.24;31.38;100153.91;5126647;27;963;-42
2020/12/31 11:53:35;;;;;;;;;;;;;;;26.19;31.71;100156.38;5117832;28;782;-43
2020/12/31 11:56:00;;;;;;;;;;;;;;;26.31;31.14;100155.88;5117731;28;834;-42
2020/12/31 11:58:26;;;;;;;;;;;;;;;26.31;31.14;100158.56;5115844;28;998;-41
2020/12/31 12:00:51;;;;;;;;;;;;;;;26.27;31.30;100153.56;5117686;28;822;-42
2020/12/31 12:03:16;;;;;;;;;;;;;;;26.10;31.15;100150.25;5117618;28;1947;-42
2020/12/31 12:05:41;;;;;;;;;;;;;;;26.21;31.11;100142.69;5117485;27;997;-42
2020/12/31 12:08:07;;;;;;;;;;;;;;;26.29;30.73;100142.56;5117488;28;775;-42
2020/12/31 12:10:32;;;;;;;;;;;;;;;26.13;31.07;100139.09;5131784;27;1182;-44
2020/12/31 12:12:58;;;;;;;;;;;;;;;26.14;30.97;100139.94;5137697;27;799;-42
2020/12/31 12:15:23;;;;;;;;;;;;;;;26.19;31.09;100132.13;5137857;27;862;-42
2020/12/31 12:17:49;;;;;;;;;;;;;;;26.23;30.77;100133.38;5138180;27;771;-41
2020/12/31 12:20:15;;;;;;;;;;;;;;;26.20;30.82;100133.78;5134078;27;1350;-42
2020/12/31 12:22:40;;;;;;;;;;;;;;;26.22;30.90;100130.88;5117239;28;1914;-43
2020/12/31 12:25:06;;;;;;;;;;;;;;;26.03;31.75;100142.09;5115738;28;973;-42
2020/12/31 12:27:31;;;;;;;;;;;;;;;26.82;30.20;100146.78;5116533;28;851;-42
2020/12/31 12:29:56;;;;;;;;;;;;;;;26.38;30.75;100138.75;5117331;28;743;-43
2020/12/31 12:32:22;;;;;;;;;;;;;;;26.24;31.07;100145.81;5117248;28;850;-44
2020/12/31 12:34:47;;;;;;;;;;;;;;;26.14;31.13;100145.31;5116475;28;815;-43
2020/12/31 12:37:12;;;;;;;;;;;;;;;26.34;31.19;100150.13;5116795;27;1001;-44
2020/12/31 12:39:38;;;;;;;;;;;;;;;26.12;31.15;100142.81;5117027;28;783;-44
2020/12/31 12:42:03;;;;;;;;;;;;;;;26.18;31.31;100149.28;5116374;28;1929;-42
2020/12/31 12:44:28;;;;;;;;;;;;;;;26.24;31.27;100158.50;5116796;28;798;-45
2020/12/31 12:46:54;;;;;;;;;;;;;;;26.13;31.29;100155.25;5116766;28;794;-42
2020/12/31 12:49:21;;;;;;;;;;;;;;;26.25;31.22;100150.22;5116541;28;970;-43